createdAt,value
2018-03-20T00:00:12.445Z,1006.16
2018-03-20T00:00:52.866Z,1006.16
2018-03-20T00:01:33.173Z,1006.18
2018-03-20T00:02:13.504Z,1006.18
2018-03-20T00:02:53.986Z,1006.2
2018-03-20T00:03:34.353Z,1006.15
2018-03-20T00:04:14.751Z,1006.18
2018-03-20T00:04:55.099Z,1006.14
2018-03-20T00:05:35.504Z,1006.17
2018-03-20T00:06:15.930Z,1006.14
2018-03-20T00:06:56.312Z,1006.15
2018-03-20T00:07:36.718Z,1006.15
2018-03-20T00:08:17.127Z,1006.15
2018-03-20T00:08:57.502Z,1006.13
2018-03-20T00:09:37.935Z,1006.1
2018-03-20T00:10:18.333Z,1006.13
2018-03-20T00:10:58.722Z,1006.16
2018-03-20T00:11:39.072Z,1006.18
2018-03-20T00:12:19.483Z,1006.15
2018-03-20T00:12:59.827Z,1006.16
2018-03-20T00:13:40.304Z,1006.18
2018-03-20T00:14:20.679Z,1006.17
2018-03-20T00:15:01.096Z,1006.18
2018-03-20T00:15:41.401Z,1006.19
2018-03-20T00:16:21.833Z,1006.18
2018-03-20T00:17:02.205Z,1006.24
2018-03-20T00:17:42.616Z,1006.2
2018-03-20T00:18:23.050Z,1006.2
2018-03-20T00:19:03.468Z,1006.22
2018-03-20T00:19:43.865Z,1006.2
2018-03-20T00:20:24.290Z,1006.21
2018-03-20T00:21:04.677Z,1006.25
2018-03-20T00:21:45.037Z,1006.2
2018-03-20T00:22:25.504Z,1006.23
2018-03-20T00:23:05.876Z,1006.25
2018-03-20T00:23:46.229Z,1006.24
2018-03-20T00:24:26.622Z,1006.24
2018-03-20T00:25:06.970Z,1006.24
2018-03-20T00:25:47.387Z,1006.28
2018-03-20T00:26:27.734Z,1006.26
2018-03-20T00:27:08.097Z,1006.25
2018-03-20T00:27:48.536Z,1006.26
2018-03-20T00:28:28.860Z,1006.24
2018-03-20T00:29:09.378Z,1006.28
2018-03-20T00:29:49.664Z,1006.25
2018-03-20T00:30:30.048Z,1006.28
2018-03-20T00:31:10.372Z,1006.27
2018-03-20T00:31:50.797Z,1006.3
2018-03-20T00:32:31.201Z,1006.27
2018-03-20T00:33:11.601Z,1006.23
2018-03-20T00:33:51.986Z,1006.25
2018-03-20T00:34:32.340Z,1006.25
2018-03-20T00:35:12.739Z,1006.29
2018-03-20T00:35:53.104Z,1006.3
2018-03-20T00:36:33.503Z,1006.33
2018-03-20T00:37:13.958Z,1006.28
2018-03-20T00:37:54.307Z,1006.23
2018-03-20T00:38:34.676Z,1006.26
2018-03-20T00:39:15.054Z,1006.28
2018-03-20T00:39:55.483Z,1006.33
2018-03-20T00:40:35.985Z,1006.26
2018-03-20T00:41:16.425Z,1006.27
2018-03-20T00:41:56.741Z,1006.27
2018-03-20T00:42:37.173Z,1006.28
2018-03-20T00:43:17.547Z,1006.26
2018-03-20T00:43:57.923Z,1006.26
2018-03-20T00:44:38.371Z,1006.25
2018-03-20T00:45:18.738Z,1006.29
2018-03-20T00:45:59.187Z,1006.31
2018-03-20T00:46:39.580Z,1006.3
2018-03-20T00:47:20.016Z,1006.33
2018-03-20T00:48:00.381Z,1006.35
2018-03-20T00:48:40.791Z,1006.33
2018-03-20T00:49:21.129Z,1006.36
2018-03-20T00:50:01.516Z,1006.31
2018-03-20T00:50:41.950Z,1006.32
2018-03-20T00:51:22.363Z,1006.33
2018-03-20T00:52:02.712Z,1006.34
2018-03-20T00:52:43.085Z,1006.33
2018-03-20T00:53:23.464Z,1006.36
2018-03-20T00:54:03.890Z,1006.37
2018-03-20T00:54:44.224Z,1006.36
2018-03-20T00:55:24.648Z,1006.37
2018-03-20T00:56:05.058Z,1006.37
2018-03-20T00:56:45.396Z,1006.39
2018-03-20T00:57:25.854Z,1006.41
2018-03-20T00:58:06.156Z,1006.43
2018-03-20T00:58:46.540Z,1006.48
2018-03-20T00:59:27.038Z,1006.46
2018-03-20T01:00:07.400Z,1006.5
2018-03-20T01:00:47.832Z,1006.48
2018-03-20T01:01:28.252Z,1006.49
2018-03-20T01:02:08.665Z,1006.49
2018-03-20T01:02:49.057Z,1006.49
2018-03-20T01:03:29.435Z,1006.53
2018-03-20T01:04:09.835Z,1006.55
2018-03-20T01:04:50.275Z,1006.52
2018-03-20T01:05:30.679Z,1006.53
2018-03-20T01:06:11.067Z,1006.51
2018-03-20T01:06:51.475Z,1006.49
2018-03-20T01:07:31.818Z,1006.56
2018-03-20T01:08:12.190Z,1006.53
2018-03-20T01:08:52.589Z,1006.55
2018-03-20T01:09:33.052Z,1006.5
2018-03-20T01:10:13.340Z,1006.48
2018-03-20T01:10:53.960Z,1006.53
2018-03-20T01:11:34.245Z,1006.47
2018-03-20T01:12:19.179Z,1006.48
2018-03-20T01:13:01.311Z,1006.49
2018-03-20T01:13:41.766Z,1006.5
2018-03-20T01:14:22.524Z,1006.47
2018-03-20T01:15:02.992Z,1006.51
2018-03-20T01:15:44.142Z,1006.52
2018-03-20T01:16:27.175Z,1006.52
2018-03-20T01:17:07.943Z,1006.52
2018-03-20T01:17:49.257Z,1006.55
2018-03-20T01:18:30.643Z,1006.52
2018-03-20T01:19:10.691Z,1006.57
2018-03-20T01:19:51.101Z,1006.54
2018-03-20T01:20:31.530Z,1006.54
2018-03-20T01:21:11.863Z,1006.55
2018-03-20T01:21:52.428Z,1006.56
2018-03-20T01:22:32.764Z,1006.56
2018-03-20T01:23:13.201Z,1006.55
2018-03-20T01:23:53.571Z,1006.56
2018-03-20T01:24:33.971Z,1006.58
2018-03-20T01:25:14.379Z,1006.56
2018-03-20T01:25:54.770Z,1006.58
2018-03-20T01:26:38.096Z,1006.61
2018-03-20T01:27:18.543Z,1006.59
2018-03-20T01:27:58.934Z,1006.6
2018-03-20T01:28:39.332Z,1006.58
2018-03-20T01:29:19.718Z,1006.57
2018-03-20T01:30:00.123Z,1006.6
2018-03-20T01:30:40.480Z,1006.54
2018-03-20T01:31:21.039Z,1006.57
2018-03-20T01:32:01.374Z,1006.55
2018-03-20T01:32:41.782Z,1006.53
2018-03-20T01:33:22.175Z,1006.52
2018-03-20T01:34:02.593Z,1006.48
2018-03-20T01:34:43.487Z,1006.5
2018-03-20T01:35:23.805Z,1006.51
2018-03-20T01:36:04.229Z,1006.52
2018-03-20T01:36:44.648Z,1006.49
2018-03-20T01:37:25.094Z,1006.5
2018-03-20T01:38:05.600Z,1006.49
2018-03-20T01:38:45.947Z,1006.49
2018-03-20T01:39:26.346Z,1006.48
2018-03-20T01:40:06.706Z,1006.49
2018-03-20T01:40:47.194Z,1006.49
2018-03-20T01:41:27.619Z,1006.49
2018-03-20T01:42:08.113Z,1006.46
2018-03-20T01:42:48.308Z,1006.51
2018-03-20T01:43:28.827Z,1006.5
2018-03-20T01:44:09.212Z,1006.51
2018-03-20T01:44:49.620Z,1006.55
2018-03-20T01:45:30.068Z,1006.52
2018-03-20T01:46:11.004Z,1006.55
2018-03-20T01:46:50.930Z,1006.51
2018-03-20T01:47:31.443Z,1006.53
2018-03-20T01:48:11.781Z,1006.54
2018-03-20T01:48:52.243Z,1006.53
2018-03-20T01:49:32.584Z,1006.5
2018-03-20T01:50:12.968Z,1006.5
2018-03-20T01:50:53.392Z,1006.49
2018-03-20T01:51:33.739Z,1006.48
2018-03-20T01:52:14.089Z,1006.55
2018-03-20T01:52:54.503Z,1006.52
2018-03-20T01:53:34.842Z,1006.52
2018-03-20T01:54:15.255Z,1006.52
2018-03-20T01:54:55.617Z,1006.52
2018-03-20T01:55:36.065Z,1006.51
2018-03-20T01:56:16.390Z,1006.5
2018-03-20T01:56:57.245Z,1006.53
2018-03-20T01:57:37.554Z,1006.55
2018-03-20T01:58:17.930Z,1006.59
2018-03-20T01:58:58.401Z,1006.56
2018-03-20T01:59:38.787Z,1006.57
2018-03-20T02:00:19.200Z,1006.61
2018-03-20T02:00:59.519Z,1006.58
2018-03-20T02:01:40.032Z,1006.6
2018-03-20T02:02:20.588Z,1006.6
2018-03-20T02:03:00.928Z,1006.64
2018-03-20T02:03:41.359Z,1006.61
2018-03-20T02:04:21.679Z,1006.6
2018-03-20T02:05:02.044Z,1006.59
2018-03-20T02:05:42.595Z,1006.59
2018-03-20T02:06:22.884Z,1006.56
2018-03-20T02:07:03.295Z,1006.56
2018-03-20T02:07:43.685Z,1006.56
2018-03-20T02:08:24.074Z,1006.51
2018-03-20T02:09:04.494Z,1006.51
2018-03-20T02:09:44.942Z,1006.5
2018-03-20T02:10:25.352Z,1006.46
2018-03-20T02:11:05.719Z,1006.47
2018-03-20T02:11:46.062Z,1006.5
2018-03-20T02:12:26.459Z,1006.43
2018-03-20T02:13:06.972Z,1006.49
2018-03-20T02:13:47.327Z,1006.46
2018-03-20T02:14:27.706Z,1006.46
2018-03-20T02:15:08.059Z,1006.51
2018-03-20T02:15:48.500Z,1006.5
2018-03-20T02:16:28.886Z,1006.49
2018-03-20T02:17:09.629Z,1006.48
2018-03-20T02:17:49.866Z,1006.5
2018-03-20T02:18:30.285Z,1006.47
2018-03-20T02:19:10.745Z,1006.49
2018-03-20T02:19:51.339Z,1006.48
2018-03-20T02:20:31.578Z,1006.52
2018-03-20T02:21:12.289Z,1006.47
2018-03-20T02:21:52.531Z,1006.5
2018-03-20T02:22:33.085Z,1006.49
2018-03-20T02:23:13.408Z,1006.48
2018-03-20T02:23:54.217Z,1006.48
2018-03-20T02:24:36.096Z,1006.5
2018-03-20T02:25:16.255Z,1006.49
2018-03-20T02:25:56.629Z,1006.5
2018-03-20T02:26:36.986Z,1006.43
2018-03-20T02:27:17.487Z,1006.41
2018-03-20T02:27:57.863Z,1006.42
2018-03-20T02:28:38.265Z,1006.43
2018-03-20T02:29:18.718Z,1006.46
2018-03-20T02:29:59.077Z,1006.45
2018-03-20T02:30:41.175Z,1006.52
2018-03-20T02:31:21.802Z,1006.53
2018-03-20T02:32:02.410Z,1006.52
2018-03-20T02:32:42.636Z,1006.55
2018-03-20T02:33:23.139Z,1006.53
2018-03-20T02:41:52.135Z,1006.59
2018-03-20T02:42:32.495Z,1006.59
2018-03-20T02:43:12.938Z,1006.55
2018-03-20T02:43:53.341Z,1006.63
2018-03-20T02:44:33.706Z,1006.58
2018-03-20T02:45:14.088Z,1006.61
2018-03-20T02:45:54.527Z,1006.64
2018-03-20T02:46:34.907Z,1006.66
2018-03-20T02:47:15.309Z,1006.66
2018-03-20T02:47:55.664Z,1006.65
2018-03-20T02:48:36.078Z,1006.64
2018-03-20T02:49:16.433Z,1006.63
2018-03-20T02:49:56.828Z,1006.63
2018-03-20T02:50:37.268Z,1006.63
2018-03-20T02:51:17.637Z,1006.58
2018-03-20T02:51:58.041Z,1006.57
2018-03-20T02:52:38.440Z,1006.56
2018-03-20T02:53:18.847Z,1006.53
2018-03-20T02:53:59.261Z,1006.57
2018-03-20T02:54:39.654Z,1006.54
2018-03-20T02:55:20.074Z,1006.57
2018-03-20T02:56:00.465Z,1006.6
2018-03-20T02:56:40.876Z,1006.61
2018-03-20T02:57:21.314Z,1006.63
2018-03-20T02:58:01.782Z,1006.61
2018-03-20T02:58:42.136Z,1006.63
2018-03-20T02:59:22.584Z,1006.6
2018-03-20T03:00:02.953Z,1006.64
2018-03-20T03:00:43.330Z,1006.64
2018-03-20T03:01:23.696Z,1006.64
2018-03-20T03:02:04.094Z,1006.62
2018-03-20T03:02:44.496Z,1006.64
2018-03-20T03:03:24.945Z,1006.63
2018-03-20T03:04:05.314Z,1006.63
2018-03-20T03:04:45.739Z,1006.58
2018-03-20T03:05:26.132Z,1006.65
2018-03-20T03:06:06.505Z,1006.64
2018-03-20T03:06:46.920Z,1006.62
2018-03-20T03:07:27.298Z,1006.65
2018-03-20T03:08:07.686Z,1006.64
2018-03-20T03:08:48.105Z,1006.63
2018-03-20T03:09:28.493Z,1006.64
2018-03-20T03:10:08.892Z,1006.63
2018-03-20T03:10:49.272Z,1006.62
2018-03-20T03:11:29.683Z,1006.61
2018-03-20T03:12:10.063Z,1006.62
2018-03-20T03:12:50.411Z,1006.6
2018-03-20T03:13:30.831Z,1006.62
2018-03-20T03:14:11.234Z,1006.63
2018-03-20T03:14:51.612Z,1006.62
2018-03-20T03:15:32.026Z,1006.63
2018-03-20T03:16:12.430Z,1006.64
2018-03-20T03:16:52.805Z,1006.6
2018-03-20T03:17:33.194Z,1006.62
2018-03-20T03:18:13.618Z,1006.6
2018-03-20T03:18:54.003Z,1006.6
2018-03-20T03:19:34.394Z,1006.56
2018-03-20T03:20:14.737Z,1006.56
2018-03-20T03:20:55.175Z,1006.53
2018-03-20T03:21:35.538Z,1006.52
2018-03-20T03:22:15.942Z,1006.47
2018-03-20T03:22:56.385Z,1006.43
2018-03-20T03:23:36.799Z,1006.48
2018-03-20T04:46:54.829Z,1006.5
2018-03-20T04:47:35.222Z,1006.51
2018-03-20T04:48:15.603Z,1006.49
2018-03-20T04:48:56.007Z,1006.51
2018-03-20T04:49:36.385Z,1006.54
2018-03-20T04:50:16.807Z,1006.52
2018-03-20T04:50:57.158Z,1006.61
2018-03-20T04:51:37.563Z,1006.55
2018-03-20T04:52:17.996Z,1006.56
2018-03-20T04:52:58.400Z,1006.56
2018-03-20T04:53:38.811Z,1006.53
2018-03-20T04:54:19.171Z,1006.56
2018-03-20T04:54:59.603Z,1006.56
2018-03-20T04:55:39.984Z,1006.56
2018-03-20T04:56:20.388Z,1006.6
2018-03-20T04:57:00.866Z,1006.54
2018-03-20T04:57:41.303Z,1006.56
2018-03-20T04:58:21.710Z,1006.57
2018-03-20T04:59:02.104Z,1006.6
2018-03-20T04:59:42.524Z,1006.62
2018-03-20T05:00:22.874Z,1006.62
2018-03-20T05:01:03.328Z,1006.63
2018-03-20T05:01:43.753Z,1006.63
2018-03-20T05:02:24.163Z,1006.6
2018-03-20T05:03:04.556Z,1006.59
2018-03-20T05:03:44.913Z,1006.57
2018-03-20T05:04:25.346Z,1006.55
2018-03-20T05:05:05.806Z,1006.53
2018-03-20T05:05:46.274Z,1006.5
2018-03-20T05:06:26.652Z,1006.46
2018-03-20T05:07:07.092Z,1006.49
2018-03-20T05:07:47.461Z,1006.52
2018-03-20T05:08:27.859Z,1006.48
2018-03-20T05:09:08.326Z,1006.49
2018-03-20T05:09:48.699Z,1006.45
2018-03-20T05:10:29.073Z,1006.48
2018-03-20T05:11:09.522Z,1006.45
2018-03-20T05:11:49.930Z,1006.45
2018-03-20T05:12:30.339Z,1006.45
2018-03-20T05:13:10.716Z,1006.53
2018-03-20T05:13:51.111Z,1006.51
2018-03-20T05:14:31.530Z,1006.56
2018-03-20T05:15:11.944Z,1006.53
2018-03-20T05:15:52.381Z,1006.57
2018-03-20T05:16:32.743Z,1006.6
2018-03-20T05:17:13.174Z,1006.59
2018-03-20T05:17:53.562Z,1006.62
2018-03-20T05:18:33.983Z,1006.62
2018-03-20T05:19:14.376Z,1006.61
2018-03-20T05:19:54.774Z,1006.6
2018-03-20T05:20:35.175Z,1006.61
2018-03-20T05:21:15.589Z,1006.64
2018-03-20T05:21:56.009Z,1006.63
2018-03-20T05:22:36.372Z,1006.59
2018-03-20T05:23:16.750Z,1006.59
2018-03-20T05:23:57.214Z,1006.62
2018-03-20T05:24:37.658Z,1006.61
2018-03-20T05:25:18.016Z,1006.61
2018-03-20T05:25:58.407Z,1006.57
2018-03-20T05:26:38.812Z,1006.62
2018-03-20T05:27:19.235Z,1006.63
2018-03-20T05:27:59.638Z,1006.68
2018-03-20T05:28:40.048Z,1006.73
2018-03-20T05:29:20.448Z,1006.69
2018-03-20T05:30:00.787Z,1006.73
2018-03-20T05:30:41.172Z,1006.7
2018-03-20T05:31:21.583Z,1006.69
2018-03-20T05:32:02.025Z,1006.7
2018-03-20T05:32:42.434Z,1006.7
2018-03-20T05:33:22.811Z,1006.69
2018-03-20T05:34:03.197Z,1006.74
2018-03-20T05:34:43.551Z,1006.77
2018-03-20T05:35:24.023Z,1006.8
2018-03-20T05:36:04.409Z,1006.83
2018-03-20T05:36:44.784Z,1006.83
2018-03-20T05:37:25.208Z,1006.79
2018-03-20T05:38:05.591Z,1006.78
2018-03-20T05:38:46.039Z,1006.8
2018-03-20T05:39:26.443Z,1006.82
2018-03-20T05:40:06.854Z,1006.83
2018-03-20T05:40:47.241Z,1006.81
2018-03-20T05:41:27.659Z,1006.82
2018-03-20T05:42:08.059Z,1006.8
2018-03-20T05:42:48.452Z,1006.81
2018-03-20T05:43:28.827Z,1006.74
2018-03-20T05:44:09.191Z,1006.79
2018-03-20T05:44:49.624Z,1006.75
2018-03-20T05:45:30.021Z,1006.77
2018-03-20T05:46:10.389Z,1006.76
2018-03-20T05:46:50.823Z,1006.78
2018-03-20T05:47:31.173Z,1006.76
2018-03-20T05:48:11.588Z,1006.71
2018-03-20T05:48:51.953Z,1006.65
2018-03-20T05:49:32.345Z,1006.62
2018-03-20T05:50:12.749Z,1006.65
2018-03-20T05:50:53.147Z,1006.61
2018-03-20T05:51:33.584Z,1006.61
2018-03-20T05:52:13.975Z,1006.63
2018-03-20T05:52:54.374Z,1006.68
2018-03-20T05:53:52.222Z,1006.71
2018-03-20T05:54:32.550Z,1006.7
2018-03-20T05:55:12.993Z,1006.7
2018-03-20T05:55:53.382Z,1006.7
2018-03-20T05:56:33.790Z,1006.74
2018-03-20T05:57:14.183Z,1006.73
2018-03-20T05:57:54.615Z,1006.68
2018-03-20T05:58:35.079Z,1006.73
2018-03-20T05:59:15.421Z,1006.7
2018-03-20T05:59:55.763Z,1006.75
2018-03-20T06:00:36.149Z,1006.69
2018-03-20T06:01:16.556Z,1006.73
2018-03-20T06:01:56.921Z,1006.73
2018-03-20T06:02:37.319Z,1006.76
2018-03-20T06:03:17.746Z,1006.73
2018-03-20T06:03:58.147Z,1006.76
2018-03-20T06:04:38.567Z,1006.79
2018-03-20T06:05:18.945Z,1006.78
2018-03-20T06:05:59.372Z,1006.78
2018-03-20T06:06:39.811Z,1006.75
2018-03-20T06:07:20.215Z,1006.8
2018-03-20T06:08:00.630Z,1006.76
2018-03-20T06:08:41.063Z,1006.74
2018-03-20T06:09:21.407Z,1006.75
2018-03-20T06:10:01.799Z,1006.75
2018-03-20T06:10:42.195Z,1006.71
2018-03-20T06:11:22.604Z,1006.75
2018-03-20T06:12:03.014Z,1006.73
2018-03-20T06:12:43.400Z,1006.72
2018-03-20T06:13:23.838Z,1006.74
2018-03-20T06:14:04.277Z,1006.73
2018-03-20T06:14:44.699Z,1006.75
2018-03-20T06:15:25.094Z,1006.71
2018-03-20T06:16:05.535Z,1006.76
2018-03-20T06:16:45.964Z,1006.79
2018-03-20T06:17:26.357Z,1006.77
2018-03-20T06:18:06.834Z,1006.82
2018-03-20T06:18:47.255Z,1006.8
2018-03-20T06:19:27.703Z,1006.82
2018-03-20T06:20:08.210Z,1006.83
2018-03-20T06:20:48.561Z,1006.86
2018-03-20T06:21:28.951Z,1006.91
2018-03-20T06:22:09.349Z,1006.85
2018-03-20T06:22:49.715Z,1006.83
2018-03-20T06:23:30.151Z,1006.85
2018-03-20T06:24:10.570Z,1006.87
2018-03-20T06:24:50.954Z,1006.86
2018-03-20T06:25:31.400Z,1006.89
2018-03-20T06:26:11.765Z,1006.85
2018-03-20T06:26:52.145Z,1006.9
2018-03-20T06:27:32.750Z,1006.87
2018-03-20T06:28:14.313Z,1006.9
2018-03-20T06:28:54.656Z,1006.92
2018-03-20T06:29:35.204Z,1006.93
2018-03-20T06:30:15.471Z,1006.95
2018-03-20T06:30:55.798Z,1006.91
2018-03-20T06:31:36.241Z,1006.93
2018-03-20T06:32:16.714Z,1006.93
2018-03-20T06:32:57.139Z,1006.9
2018-03-20T06:33:37.452Z,1006.93
2018-03-20T06:34:17.851Z,1006.95
2018-03-20T06:34:58.254Z,1006.93
2018-03-20T06:35:38.677Z,1006.97
2018-03-20T06:36:19.031Z,1006.97
2018-03-20T06:36:59.467Z,1006.97
2018-03-20T06:37:39.840Z,1006.97
2018-03-20T06:38:20.233Z,1007
2018-03-20T06:39:00.843Z,1007.05
2018-03-20T06:39:41.388Z,1007.07
2018-03-20T06:40:21.730Z,1007.11
2018-03-20T06:41:02.148Z,1007.07
2018-03-20T06:41:42.516Z,1007.07
2018-03-20T06:42:22.929Z,1007.07
2018-03-20T06:43:03.344Z,1007.06
2018-03-20T06:43:43.727Z,1007.1
2018-03-20T06:44:24.180Z,1007.07
2018-03-20T06:45:04.530Z,1007.13
2018-03-20T06:45:44.978Z,1007.09
2018-03-20T06:46:25.381Z,1007.09
2018-03-20T06:47:05.824Z,1007.12
2018-03-20T06:47:46.205Z,1007.14
2018-03-20T06:48:26.599Z,1007.14
2018-03-20T06:49:07.013Z,1007.1
2018-03-20T06:49:47.420Z,1007.13
2018-03-20T06:50:27.783Z,1007.13
2018-03-20T06:51:08.240Z,1007.16
2018-03-20T06:51:48.745Z,1007.16
2018-03-20T06:52:29.139Z,1007.16
2018-03-20T06:53:10.162Z,1007.17
2018-03-20T06:53:50.605Z,1007.19
2018-03-20T06:54:30.991Z,1007.2
2018-03-20T06:55:11.667Z,1007.15
2018-03-20T06:55:53.030Z,1007.18
2018-03-20T06:56:32.806Z,1007.22
2018-03-20T06:57:13.266Z,1007.17
2018-03-20T06:57:53.939Z,1007.2
2018-03-20T06:58:34.429Z,1007.24
2018-03-20T06:59:15.251Z,1007.24
2018-03-20T06:59:55.842Z,1007.25
2018-03-20T07:00:36.304Z,1007.28
2018-03-20T07:01:16.956Z,1007.29
2018-03-20T07:01:57.708Z,1007.3
2018-03-20T07:02:38.547Z,1007.32
2018-03-20T07:03:19.170Z,1007.33
2018-03-20T07:03:59.531Z,1007.35
2018-03-20T07:04:39.940Z,1007.33
2018-03-20T07:05:20.456Z,1007.33
2018-03-20T07:06:00.834Z,1007.34
2018-03-20T07:06:41.206Z,1007.31
2018-03-20T07:07:21.637Z,1007.31
2018-03-20T07:08:02.058Z,1007.35
2018-03-20T07:08:42.439Z,1007.38
2018-03-20T07:09:22.858Z,1007.38
2018-03-20T07:10:03.271Z,1007.35
2018-03-20T07:10:43.630Z,1007.33
2018-03-20T07:11:24.042Z,1007.36
2018-03-20T07:12:04.392Z,1007.38
2018-03-20T07:12:44.794Z,1007.38
2018-03-20T07:13:25.260Z,1007.44
2018-03-20T07:14:05.601Z,1007.41
2018-03-20T07:14:46.108Z,1007.42
2018-03-20T07:15:26.516Z,1007.41
2018-03-20T07:16:06.911Z,1007.44
2018-03-20T07:16:47.349Z,1007.47
2018-03-20T07:17:27.818Z,1007.52
2018-03-20T07:18:08.217Z,1007.56
2018-03-20T07:18:48.625Z,1007.55
2018-03-20T07:19:28.941Z,1007.52
2018-03-20T07:20:09.345Z,1007.52
2018-03-20T07:20:49.705Z,1007.53
2018-03-20T07:21:30.145Z,1007.53
2018-03-20T07:22:10.675Z,1007.55
2018-03-20T07:22:51.269Z,1007.52
2018-03-20T07:23:31.909Z,1007.56
2018-03-20T07:24:12.254Z,1007.54
2018-03-20T07:24:52.655Z,1007.57
2018-03-20T07:25:33.088Z,1007.57
2018-03-20T07:26:13.527Z,1007.6
2018-03-20T07:26:53.945Z,1007.62
2018-03-20T07:27:34.345Z,1007.64
2018-03-20T07:28:14.755Z,1007.6
2018-03-20T07:28:55.100Z,1007.63
2018-03-20T07:29:35.655Z,1007.61
2018-03-20T07:30:16.070Z,1007.62
2018-03-20T07:30:56.522Z,1007.61
2018-03-20T07:31:36.981Z,1007.62
2018-03-20T07:32:17.345Z,1007.61
2018-03-20T07:32:57.717Z,1007.62
2018-03-20T07:33:38.126Z,1007.68
2018-03-20T07:34:18.645Z,1007.64
2018-03-20T07:34:59.156Z,1007.69
2018-03-20T07:35:39.586Z,1007.69
2018-03-20T07:36:19.980Z,1007.74
2018-03-20T07:37:00.396Z,1007.72
2018-03-20T07:37:40.814Z,1007.74
2018-03-20T07:38:21.180Z,1007.69
2018-03-20T07:39:01.552Z,1007.69
2018-03-20T07:39:42.008Z,1007.67
2018-03-20T07:40:22.442Z,1007.65
2018-03-20T07:41:02.841Z,1007.69
2018-03-20T07:41:43.330Z,1007.71
2018-03-20T07:42:23.727Z,1007.65
2018-03-20T07:43:04.130Z,1007.72
2018-03-20T07:43:44.549Z,1007.73
2018-03-20T07:46:14.832Z,1007.73
2018-03-20T07:46:55.363Z,1007.74
2018-03-20T07:47:36.314Z,1007.76
2018-03-20T07:48:16.726Z,1007.76
2018-03-20T07:48:57.318Z,1007.74
2018-03-20T07:49:38.385Z,1007.79
2018-03-20T07:50:19.857Z,1007.82
2018-03-20T07:51:00.599Z,1007.79
2018-03-20T07:51:41.452Z,1007.8
2018-03-20T07:52:21.895Z,1007.83
2018-03-20T07:53:02.448Z,1007.8
2018-03-20T07:53:43.113Z,1007.83
2018-03-20T07:54:24.408Z,1007.79
2018-03-20T07:55:05.445Z,1007.82
2018-03-20T07:55:46.416Z,1007.85
2018-03-20T07:56:27.126Z,1007.84
2018-03-20T07:57:07.566Z,1007.85
2018-03-20T07:57:48.907Z,1007.87
2018-03-20T07:58:29.885Z,1007.87
2018-03-20T07:59:11.037Z,1007.92
2018-03-20T07:59:51.529Z,1007.95
2018-03-20T08:00:31.814Z,1007.96
2018-03-20T08:01:12.206Z,1007.94
2018-03-20T08:01:53.920Z,1007.96
2018-03-20T08:02:36.093Z,1007.94
2018-03-20T08:03:16.578Z,1007.97
2018-03-20T08:03:58.084Z,1007.92
2018-03-20T08:04:38.563Z,1007.94
2018-03-20T08:05:19.130Z,1007.94
2018-03-20T08:06:00.001Z,1007.93
2018-03-20T08:06:41.146Z,1007.91
2018-03-20T08:07:22.605Z,1007.85
2018-03-20T08:08:02.985Z,1007.86
2018-03-20T08:08:43.776Z,1007.88
2018-03-20T08:09:24.482Z,1007.87
2018-03-20T08:10:04.997Z,1007.84
2018-03-20T08:10:45.599Z,1007.86
2018-03-20T08:11:26.660Z,1007.86
2018-03-20T08:12:08.533Z,1007.82
2018-03-20T08:12:48.836Z,1007.89
2018-03-20T08:13:29.361Z,1007.84
2018-03-20T08:14:10.514Z,1007.83
2018-03-20T08:14:50.823Z,1007.84
2018-03-20T08:17:12.020Z,1007.89
2018-03-20T08:17:52.324Z,1007.86
2018-03-20T08:18:32.726Z,1007.89
2018-03-20T08:19:14.109Z,1007.88
2018-03-20T08:19:54.514Z,1007.92
2018-03-20T08:20:35.047Z,1007.98
2018-03-20T08:21:17.073Z,1007.87
2018-03-20T08:21:58.076Z,1007.91
2018-03-20T08:22:39.065Z,1007.86
2018-03-20T08:23:18.930Z,1007.9
2018-03-20T08:23:59.479Z,1007.91
2018-03-20T08:24:39.941Z,1007.94
2018-03-20T08:25:20.317Z,1007.95
2018-03-20T08:26:01.134Z,1007.97
2018-03-20T08:26:41.895Z,1007.95
2018-03-20T08:27:22.972Z,1008
2018-03-20T08:28:03.513Z,1008
2018-03-20T08:28:44.332Z,1008.01
2018-03-20T08:29:24.981Z,1007.98
2018-03-20T08:30:05.915Z,1008.05
2018-03-20T08:30:47.008Z,1008.03
2018-03-20T08:31:27.454Z,1008.05
2018-03-20T08:32:08.111Z,1008.03
2018-03-20T08:32:48.552Z,1008.08
2018-03-20T08:33:29.421Z,1008.12
2018-03-20T08:34:10.106Z,1008.11
2018-03-20T08:34:50.813Z,1008.08
2018-03-20T08:35:32.056Z,1008.03
2018-03-20T08:36:13.412Z,1008.07
2018-03-20T08:39:16.127Z,1008.04
2018-03-20T08:39:57.281Z,1008.05
2018-03-20T08:40:38.475Z,1008.04
2018-03-20T08:41:18.852Z,1008.09
2018-03-20T08:41:59.510Z,1008.13
2018-03-20T08:42:40.598Z,1008.12
2018-03-20T08:43:21.270Z,1008.1
2018-03-20T08:44:03.715Z,1008.1
2018-03-20T08:44:44.022Z,1008.03
2018-03-20T08:45:26.259Z,1008.1
2018-03-20T08:46:06.477Z,1008.08
2018-03-20T08:46:48.410Z,1008.14
2018-03-20T08:47:28.747Z,1008.08
2018-03-20T08:48:09.861Z,1008.17
2018-03-20T08:48:50.967Z,1008.1
2018-03-20T08:49:31.707Z,1008.17
2018-03-20T08:50:13.148Z,1008.19
2018-03-20T08:50:54.407Z,1008.22
2018-03-20T08:51:37.303Z,1008.27
2018-03-20T08:52:18.203Z,1008.27
2018-03-20T08:52:58.772Z,1008.31
2018-03-20T08:53:40.645Z,1008.36
2018-03-20T08:54:22.204Z,1008.37
2018-03-20T08:55:03.477Z,1008.4
2018-03-20T08:55:44.295Z,1008.42
2018-03-20T08:56:24.715Z,1008.46
2018-03-20T08:57:05.417Z,1008.51
2018-03-20T08:57:46.095Z,1008.56
2018-03-20T08:58:26.512Z,1008.6
2018-03-20T08:59:06.987Z,1008.57
2018-03-20T08:59:47.693Z,1008.6
2018-03-20T09:00:29.439Z,1008.64
2018-03-20T09:01:09.860Z,1008.67
2018-03-20T09:01:50.344Z,1008.72
2018-03-20T09:02:30.950Z,1008.71
2018-03-20T09:03:12.759Z,1008.72
2018-03-20T09:03:52.385Z,1008.72
2018-03-20T09:04:33.210Z,1008.71
2018-03-20T09:05:13.803Z,1008.78
2018-03-20T09:05:56.338Z,1008.74
2018-03-20T09:06:37.650Z,1008.74
2018-03-20T09:07:19.540Z,1008.75
2018-03-20T09:10:41.096Z,1008.78
2018-03-20T09:11:23.712Z,1008.76
2018-03-20T09:12:05.091Z,1008.79
2018-03-20T09:12:44.850Z,1008.79
2018-03-20T09:13:26.060Z,1008.8
2018-03-20T09:14:06.505Z,1008.86
2018-03-20T09:14:46.904Z,1008.82
2018-03-20T09:15:27.323Z,1008.79
2018-03-20T09:16:08.364Z,1008.82
2018-03-20T09:16:48.250Z,1008.81
2018-03-20T09:17:28.646Z,1008.81
2018-03-20T09:18:09.293Z,1008.85
2018-03-20T09:18:49.653Z,1008.85
2018-03-20T09:19:30.339Z,1008.83
2018-03-20T09:20:11.475Z,1008.82
2018-03-20T09:20:51.850Z,1008.86
2018-03-20T09:21:32.246Z,1008.86
2018-03-20T09:22:12.719Z,1008.84
2018-03-20T09:22:53.654Z,1008.85
2018-03-20T09:23:34.511Z,1008.84
2018-03-20T09:24:14.918Z,1008.8
2018-03-20T09:24:56.068Z,1008.85
2018-03-20T09:25:36.051Z,1008.84
2018-03-20T09:26:16.502Z,1008.81
2018-03-20T09:26:57.006Z,1008.89
2018-03-20T09:27:37.329Z,1008.86
2018-03-20T09:28:17.736Z,1008.85
2018-03-20T09:28:58.359Z,1008.87
2018-03-20T09:29:38.749Z,1008.92
2018-03-20T09:30:19.445Z,1008.91
2018-03-20T09:31:02.378Z,1008.89
2018-03-20T09:31:45.326Z,1008.93
2018-03-20T09:32:25.836Z,1008.94
2018-03-20T09:33:06.209Z,1008.93
2018-03-20T09:33:46.646Z,1009
2018-03-20T09:34:27.092Z,1009.01
2018-03-20T09:35:07.632Z,1009.03
2018-03-20T09:35:48.036Z,1009
2018-03-20T09:36:28.554Z,1009.03
2018-03-20T09:37:09.032Z,1009.06
2018-03-20T09:37:49.444Z,1009.04
2018-03-20T09:38:30.089Z,1009.03
2018-03-20T09:39:10.525Z,1009.07
2018-03-20T09:39:51.142Z,1009.05
2018-03-20T09:40:31.553Z,1009.04
2018-03-20T09:41:12.926Z,1009.05
2018-03-20T09:41:52.728Z,1009.07
2018-03-20T09:42:33.230Z,1009.05
2018-03-20T09:43:14.309Z,1009.1
2018-03-20T09:43:54.722Z,1009.1
2018-03-20T09:44:35.074Z,1009.12
2018-03-20T09:45:16.222Z,1009.14
2018-03-20T09:45:56.866Z,1009.16
2018-03-20T09:46:37.409Z,1009.18
2018-03-20T09:47:17.863Z,1009.15
2018-03-20T09:47:58.723Z,1009.13
2018-03-20T09:48:38.928Z,1009.16
2018-03-20T09:49:19.325Z,1009.08
2018-03-20T09:49:59.924Z,1009.12
2018-03-20T09:50:40.350Z,1009.17
2018-03-20T09:51:21.363Z,1009.14